• Join FlightAware (Why Join?)
  • Login
  • US Flag 
11:59PM EDT


 

Airport Tracker/Info


-or-


 

Live Flight TrackerFlight Track Log ✈ DLH1754 ✈ 23-Apr-2013 ✈ EDDM / MUC - LGAV / ATH

Flight Track Log - Related Links

Times and Time Zones

All times are in EDT time to prevent confusion due to time zone crossing. See the DLH1754 flight status page for this flight to view local times or setup timezone preferences in your user account.

Time Position Orientation Groundspeed Altitude Reporting Facility
EDT Latitude Longitude Course Direction KTS MPH feet Rate Location/Type
02:04PM 47.7656 12.6486 135° Southeast  Level Estimated
02:05PM 47.6810 12.7702 136° Southeast  Level Estimated
02:06PM 47.5964 12.8915 136° Southeast  Level Estimated
02:07PM 47.5115 13.0123 136° Southeast  Level Estimated
02:08PM 47.4266 13.1328 136° Southeast  Level Estimated
02:09PM 47.3415 13.2528 136° Southeast  Level Estimated
02:10PM 47.2564 13.3725 136° Southeast  Level Estimated
02:11PM 47.1711 13.4918 136° Southeast  Level Estimated
02:12PM 47.0856 13.6107 137° Southeast  Level Estimated
02:13PM 47.0001 13.7292 137° Southeast  Level Estimated
02:14PM 46.9144 13.8473 137° Southeast  Level Estimated
02:15PM 46.8286 13.9651 137° Southeast  Level Estimated
02:16PM 46.7427 14.0825 137° Southeast  Level Estimated
02:17PM 46.6566 14.1995 137° Southeast  Level Estimated
02:18PM 46.5705 14.3161 137° Southeast  Level Estimated
02:19PM 46.4842 14.4324 137° Southeast  Level Estimated
02:20PM 46.3978 14.5483 137° Southeast  Level Estimated
02:21PM 46.3113 14.6639 137° Southeast  Level Estimated
02:22PM 46.2247 14.7790 137° Southeast  Level Estimated
02:23PM 46.1380 14.8938 137° Southeast  Level Estimated
02:24PM 46.0511 15.0083 138° Southeast  Level Estimated
02:25PM 45.9641 15.1224 138° Southeast  Level Estimated
02:26PM 45.8770 15.2361 138° Southeast  Level Estimated
02:27PM 45.7899 15.3495 138° Southeast  Level Estimated
02:28PM 45.7025 15.4625 138° Southeast  Level Estimated
02:29PM 45.6151 15.5752 138° Southeast  Level Estimated
02:30PM 45.5276 15.6875 138° Southeast  Level Estimated
02:31PM 45.4400 15.7995 138° Southeast  Level Estimated
02:32PM 45.3522 15.9111 138° Southeast  Level Estimated
02:33PM 45.2644 16.0224 138° Southeast  Level Estimated
02:34PM 45.1764 16.1333 138° Southeast  Level Estimated
02:35PM 45.0883 16.2439 138° Southeast  Level Estimated
02:36PM 45.0001 16.3541 139° Southeast  Level Estimated
02:37PM 44.9119 16.4640 139° Southeast  Level Estimated
02:38PM 44.8235 16.5736 139° Southeast  Level Estimated
02:39PM 44.7350 16.6828 139° Southeast  Level Estimated
02:40PM 44.6464 16.7917 139° Southeast  Level Estimated
02:41PM 44.5577 16.9003 139° Southeast  Level Estimated
02:42PM 44.4689 17.0086 139° Southeast  Level Estimated
02:43PM 44.3800 17.1165 139° Southeast  Level Estimated
02:44PM 44.2910 17.2240 139° Southeast  Level Estimated
02:45PM 44.2019 17.3313 139° Southeast  Level Estimated
02:46PM 44.1127 17.4382 139° Southeast  Level Estimated
02:47PM 44.0234 17.5448 139° Southeast  Level Estimated
02:48PM 43.9340 17.6511 139° Southeast  Level Estimated
02:49PM 43.8445 17.7571 139° Southeast  Level Estimated
02:50PM 43.7549 17.8627 140° Southeast  Level Estimated
02:51PM 43.6652 17.9681 140° Southeast  Level Estimated
02:52PM 43.5754 18.0731 140° Southeast  Level Estimated
02:53PM 43.4855 18.1778 140° Southeast  Level Estimated
02:54PM 43.3955 18.2822 140° Southeast  Level Estimated
02:55PM 43.3055 18.3863 140° Southeast  Level Estimated
02:56PM 43.2153 18.4901 140° Southeast  Level Estimated
02:57PM 43.1250 18.5936 140° Southeast  Level Estimated
02:58PM 43.0346 18.6967 140° Southeast  Level Estimated
02:59PM 42.9442 18.7996 140° Southeast  Level Estimated
03:00PM 42.8537 18.9021 140° Southeast  Level Estimated
03:01PM 42.7630 19.0044 140° Southeast  Level Estimated
03:02PM 42.6723 19.1064 140° Southeast  Level Estimated
03:03PM 42.5815 19.2080 140° Southeast  Level Estimated
03:04PM 42.4906 19.3094 141° Southeast  Level Estimated
03:05PM 42.3996 19.4105 141° Southeast  Level Estimated
03:06PM 42.3085 19.5112 141° Southeast  Level Estimated
03:07PM 42.2174 19.6117 141° Southeast  Level Estimated
03:08PM 42.1261 19.7119 141° Southeast  Level Estimated
03:09PM 42.0348 19.8118 141° Southeast  Level Estimated
03:10PM 41.9433 19.9115 141° Southeast  Level Estimated
03:11PM 41.8518 20.0108 141° Southeast  Level Estimated
03:12PM 41.7602 20.1099 141° Southeast  Level Estimated
03:13PM 41.6685 20.2086 141° Southeast  Level Estimated
03:14PM 41.5767 20.3071 141° Southeast  Level Estimated
03:15PM 41.4849 20.4053 141° Southeast  Level Estimated
03:16PM 41.3929 20.5033 141° Southeast  Level Estimated
03:17PM 41.3009 20.6009 141° Southeast  Level Estimated
03:18PM 41.2088 20.6983 141° Southeast  Level Estimated
03:19PM 41.1166 20.7954 142° Southeast  Level Estimated
03:20PM 41.0244 20.8923 142° Southeast  Level Estimated
03:21PM 40.9320 20.9888 142° Southeast  Level Estimated
03:22PM 40.8396 21.0851 142° Southeast  Level Estimated
03:23PM 40.7471 21.1812 142° Southeast  Level Estimated
03:24PM 40.6545 21.2769 142° Southeast  Level Estimated
03:25PM 40.5618 21.3724 142° Southeast  Level Estimated
03:26PM 40.4691 21.4676 142° Southeast  Level Estimated
03:27PM 40.3763 21.5626 142° Southeast  Level Estimated
03:28PM 40.2834 21.6573 142° Southeast  Level Estimated
03:29PM 40.1904 21.7518 142° Southeast  Level Estimated
03:30PM 40.0973 21.8459 142° Southeast  Level Estimated
03:31PM 40.0042 21.9399 142° Southeast  Level Estimated
03:32PM 39.9110 22.0336 142° Southeast  Level Estimated
03:33PM 39.8177 22.1270 142° Southeast  Level Estimated
03:34PM 39.7243 22.2201 142° Southeast  Level Estimated
03:35PM 39.6309 22.3130 143° Southeast  Level Estimated
03:36PM 39.5374 22.4057 143° Southeast  Level Estimated
03:37PM 39.4438 22.4981 143° Southeast  Level Estimated
03:38PM 39.3502 22.5903 143° Southeast  Level Estimated
03:39PM 39.2565 22.6822 143° Southeast  Level Estimated
03:40PM 39.1627 22.7739 143° Southeast  Level Estimated
03:41PM 39.0688 22.8653 143° Southeast  Level Estimated
03:42PM 38.9749 22.9565 143° Southeast  Level Estimated
03:43PM 38.8809 23.0474 143° Southeast  Level Estimated
03:44PM 38.7868 23.1381 143° Southeast  Level Estimated
03:45PM 38.6926 23.2286 143° Southeast  Level Estimated
03:46PM 38.5984 23.3188 143° Southeast  Level Estimated
03:47PM 38.5041 23.4088 143° Southeast  Level Estimated
03:48PM 38.4098 23.4986 143° Southeast  Level Estimated
03:49PM 38.3153 23.5881 143° Southeast  Level Estimated
03:50PM 38.2209 23.6774 143° Southeast  Level Estimated
03:51PM 38.1263 23.7665 143° Southeast  Level Estimated
03:52PM 38.0317 23.8553 144° Southeast  Level Estimated
03:53PM 37.9370 23.9439 144° Southeast  Level Estimated
03:54PM 37.9364 23.9445 144° Southeast  Level Estimated
03:55PM 37.9364 23.9445 230° Southwest  Level Estimated
03:56PM 37.9364 23.9445 230° Southwest  Level Estimated
03:57PM 37.9364 23.9445 230° Southwest  Level Estimated
03:58PM 37.9364 23.9445 230° Southwest  Level Estimated
03:59PM 37.9364 23.9445 230° Southwest  Level Estimated
04:00PM 37.9364 23.9445 230° Southwest  Level Estimated
04:01PM 37.9364 23.9445 230° Southwest  Level Estimated
04:02PM 37.9364 23.9445 230° Southwest  Level Estimated
04:03PM 37.9364 23.9445 230° Southwest  Level Estimated
04:04PM 37.9364 23.9445 230° Southwest  Level Estimated
04:05PM 37.9364 23.9445 230° Southwest  Level Estimated
04:06PM 37.9364 23.9445 230° Southwest  Level Estimated
04:07PM 37.9364 23.9445 230° Southwest  Level Estimated
04:08PM 37.9364 23.9445 230° Southwest  Level Estimated
04:09PM 37.9364 23.9445 230° Southwest  Level Estimated